createdAt,value
2019-03-15T00:01:07.225Z,1.70
2019-03-15T00:03:35.946Z,1.50
2019-03-15T00:06:04.406Z,1.50
2019-03-15T00:08:33.078Z,1.50
2019-03-15T00:11:01.596Z,1.70
2019-03-15T00:13:30.255Z,1.80
2019-03-15T00:15:58.529Z,1.60
2019-03-15T00:18:27.234Z,1.60
2019-03-15T00:20:55.794Z,1.60
2019-03-15T00:23:24.653Z,1.80
2019-03-15T00:25:55.327Z,1.70
2019-03-15T00:28:24.211Z,2.00
2019-03-15T00:30:52.976Z,2.40
2019-03-15T00:33:21.606Z,2.03
2019-03-15T00:35:50.257Z,1.90
2019-03-15T00:38:19.539Z,1.77
2019-03-15T00:40:48.271Z,2.00
2019-03-15T00:43:17.330Z,1.90
2019-03-15T00:45:46.038Z,2.00
2019-03-15T00:48:14.737Z,2.10
2019-03-15T00:50:43.090Z,2.23
2019-03-15T00:53:11.674Z,2.10
2019-03-15T00:55:40.387Z,2.30
2019-03-15T00:58:09.041Z,2.20
2019-03-15T01:00:37.525Z,2.17
2019-03-15T01:03:05.938Z,1.70
2019-03-15T01:05:35.215Z,2.33
2019-03-15T01:08:03.990Z,2.17
2019-03-15T01:10:33.754Z,2.00
2019-03-15T01:13:02.189Z,2.00
2019-03-15T01:15:30.862Z,2.17
2019-03-15T01:17:59.171Z,2.30
2019-03-15T01:20:27.821Z,1.80
2019-03-15T01:22:56.091Z,2.47
2019-03-15T01:25:24.822Z,2.33
2019-03-15T01:27:53.177Z,2.20
2019-03-15T01:30:21.569Z,2.07
2019-03-15T01:32:50.263Z,2.20
2019-03-15T01:35:18.911Z,2.10
2019-03-15T01:37:47.598Z,2.30
2019-03-15T01:40:16.335Z,2.47
2019-03-15T01:42:44.664Z,2.30
2019-03-15T01:45:13.253Z,2.53
2019-03-15T01:47:41.967Z,2.47
2019-03-15T01:50:10.618Z,2.40
2019-03-15T01:52:39.310Z,2.93
2019-03-15T01:55:08.018Z,2.60
2019-03-15T01:57:36.677Z,2.73
2019-03-15T02:00:06.062Z,2.77
2019-03-15T02:02:34.893Z,3.10
2019-03-15T02:05:03.553Z,3.00
2019-03-15T02:07:32.734Z,3.00
2019-03-15T02:10:01.366Z,3.20
2019-03-15T02:12:30.013Z,3.47
2019-03-15T02:14:58.499Z,3.30
2019-03-15T02:17:27.220Z,3.07
2019-03-15T02:19:55.861Z,2.87
2019-03-15T02:22:24.349Z,3.27
2019-03-15T02:24:52.767Z,3.10
2019-03-15T02:27:21.514Z,3.20
2019-03-15T02:29:50.205Z,3.83
2019-03-15T02:32:18.920Z,3.00
2019-03-15T02:34:47.570Z,3.53
2019-03-15T02:37:16.253Z,3.67
2019-03-15T02:39:46.079Z,3.40
2019-03-15T02:42:14.755Z,3.73
2019-03-15T02:44:43.227Z,3.40
2019-03-15T02:47:12.052Z,3.00
2019-03-15T02:49:40.708Z,3.63
2019-03-15T02:52:09.389Z,3.00
2019-03-15T02:54:38.107Z,3.77
2019-03-15T02:57:08.749Z,3.43
2019-03-15T02:59:37.522Z,3.57
2019-03-15T03:02:05.841Z,3.80
2019-03-15T03:04:34.465Z,3.40
2019-03-15T03:07:03.137Z,3.87
2019-03-15T03:09:31.853Z,3.53
2019-03-15T03:12:00.305Z,3.73
2019-03-15T03:14:28.995Z,3.73
2019-03-15T03:16:57.523Z,4.00
2019-03-15T03:19:25.859Z,3.53
2019-03-15T03:21:54.686Z,4.00
2019-03-15T03:24:24.540Z,3.73
2019-03-15T03:26:53.233Z,4.20
2019-03-15T03:29:22.044Z,4.50
2019-03-15T03:31:50.656Z,4.20
2019-03-15T03:34:19.512Z,4.03
2019-03-15T03:36:48.188Z,3.90
2019-03-15T03:39:16.623Z,4.33
2019-03-15T03:41:45.373Z,3.90
2019-03-15T03:44:13.642Z,3.97
2019-03-15T03:46:42.150Z,4.00
2019-03-15T03:49:10.805Z,4.40
2019-03-15T03:51:39.449Z,4.50
2019-03-15T03:54:08.225Z,4.47
2019-03-15T03:56:36.869Z,4.20
2019-03-15T03:59:05.545Z,4.27
2019-03-15T04:01:34.268Z,3.97
2019-03-15T04:04:02.903Z,4.40
2019-03-15T04:06:31.582Z,5.07
2019-03-15T04:09:00.331Z,4.40
2019-03-15T04:11:28.663Z,4.53
2019-03-15T04:13:57.155Z,4.23
2019-03-15T04:16:25.565Z,4.30
2019-03-15T04:18:54.194Z,4.40
2019-03-15T04:21:22.879Z,4.40
2019-03-15T04:23:51.605Z,4.67
2019-03-15T04:26:20.260Z,3.90
2019-03-15T04:28:48.946Z,5.00
2019-03-15T04:31:17.675Z,4.03
2019-03-15T04:33:46.107Z,4.40
2019-03-15T04:36:14.997Z,4.37
2019-03-15T04:38:43.505Z,4.13
2019-03-15T04:41:11.890Z,3.90
2019-03-15T04:43:40.644Z,4.90
2019-03-15T04:46:09.363Z,3.87
2019-03-15T04:48:38.012Z,3.77
2019-03-15T04:51:06.723Z,4.40
2019-03-15T04:53:35.111Z,4.37
2019-03-15T04:56:03.258Z,4.07
2019-03-15T04:58:31.943Z,4.10
2019-03-15T05:01:00.665Z,4.13
2019-03-15T05:03:29.516Z,3.67
2019-03-15T05:06:03.093Z,4.10
2019-03-15T05:08:28.158Z,3.90
2019-03-15T05:10:57.020Z,3.37
2019-03-15T05:13:25.698Z,4.00
2019-03-15T05:15:54.632Z,4.00
2019-03-15T05:18:23.261Z,3.57
2019-03-15T05:20:51.966Z,4.10
2019-03-15T05:23:20.705Z,3.33
2019-03-15T05:25:49.333Z,3.37
2019-03-15T05:28:18.226Z,3.27
2019-03-15T05:30:46.748Z,3.20
2019-03-15T05:33:15.070Z,3.27
2019-03-15T05:35:43.461Z,2.87
2019-03-15T05:38:12.175Z,2.80
2019-03-15T05:40:40.825Z,2.73
2019-03-15T05:43:09.516Z,2.63
2019-03-15T05:45:38.229Z,2.80
2019-03-15T05:48:07.742Z,2.50
2019-03-15T05:50:36.004Z,2.67
2019-03-15T05:53:04.714Z,2.90
2019-03-15T05:55:33.322Z,2.40
2019-03-15T05:58:02.045Z,3.00
2019-03-15T06:00:31.230Z,2.60
2019-03-15T06:03:00.018Z,3.10
2019-03-15T06:05:29.103Z,2.73
2019-03-15T06:07:57.407Z,3.13
2019-03-15T06:10:26.081Z,3.20
2019-03-15T06:12:54.750Z,3.23
2019-03-15T06:15:23.499Z,3.30
2019-03-15T06:17:52.146Z,3.10
2019-03-15T06:20:20.822Z,2.97
2019-03-15T06:22:49.746Z,3.70
2019-03-15T06:25:18.186Z,2.93
2019-03-15T06:27:46.872Z,3.27
2019-03-15T06:30:15.586Z,3.17
2019-03-15T06:32:44.096Z,3.10
2019-03-15T06:35:12.733Z,3.03
2019-03-15T06:37:41.454Z,3.20
2019-03-15T06:40:13.319Z,2.90
2019-03-15T06:42:40.423Z,3.00
2019-03-15T06:45:09.570Z,3.30
2019-03-15T06:47:37.993Z,2.90
2019-03-15T06:50:06.942Z,2.80
2019-03-15T06:52:35.362Z,2.83
2019-03-15T06:55:05.474Z,3.20
2019-03-15T06:57:39.737Z,2.60
2019-03-15T07:00:08.572Z,2.70
2019-03-15T07:02:37.062Z,2.50
2019-03-15T07:05:05.576Z,2.50
2019-03-15T07:07:34.029Z,2.70
2019-03-15T07:10:02.796Z,2.43
2019-03-15T07:12:31.219Z,2.17
2019-03-15T07:14:59.666Z,2.20
2019-03-15T07:17:27.963Z,2.07
2019-03-15T07:19:56.575Z,1.70
2019-03-15T07:22:25.012Z,1.80
2019-03-15T07:24:53.806Z,1.93
2019-03-15T07:27:22.526Z,1.70
2019-03-15T07:29:51.182Z,1.70
2019-03-15T07:32:19.847Z,1.33
2019-03-15T07:34:48.264Z,1.63
2019-03-15T07:37:16.729Z,1.50
2019-03-15T07:39:45.552Z,1.47
2019-03-15T07:42:14.234Z,1.40
2019-03-15T07:44:43.280Z,1.20
2019-03-15T07:47:11.668Z,1.30
2019-03-15T07:49:40.091Z,1.10
2019-03-15T07:52:08.933Z,1.20
2019-03-15T07:54:38.988Z,1.30
2019-03-15T07:57:08.715Z,1.20
2019-03-15T07:59:38.026Z,1.10
2019-03-15T08:02:06.850Z,0.93
2019-03-15T08:04:36.109Z,1.00
2019-03-15T08:07:04.697Z,0.97
2019-03-15T08:09:34.724Z,1.20
2019-03-15T08:12:04.766Z,1.00
2019-03-15T08:14:36.362Z,1.03
2019-03-15T08:17:06.370Z,0.90
2019-03-15T08:19:38.380Z,1.30
2019-03-15T08:22:10.433Z,1.10
2019-03-15T08:24:51.463Z,0.90
2019-03-15T08:27:16.078Z,1.00
2019-03-15T08:29:46.696Z,1.10
2019-03-15T08:32:16.774Z,0.97
2019-03-15T08:34:46.050Z,1.00
2019-03-15T08:37:16.091Z,1.40
2019-03-15T08:39:45.875Z,1.10
2019-03-15T08:42:16.868Z,1.33
2019-03-15T08:44:46.625Z,1.20
2019-03-15T08:47:16.744Z,1.50
2019-03-15T08:49:46.495Z,1.47
2019-03-15T08:52:16.556Z,1.97
2019-03-15T08:54:46.762Z,1.90
2019-03-15T08:57:17.914Z,1.90
2019-03-15T08:59:56.855Z,1.80
2019-03-15T09:02:19.814Z,2.37
2019-03-15T09:04:50.450Z,1.87
2019-03-15T09:07:18.589Z,1.80
2019-03-15T09:09:47.808Z,1.67
2019-03-15T09:12:16.459Z,2.00
2019-03-15T09:14:45.493Z,2.50
2019-03-15T09:17:14.072Z,3.43
2019-03-15T09:19:42.715Z,3.23
2019-03-15T09:22:11.699Z,1.80
2019-03-15T09:24:40.348Z,1.90
2019-03-15T09:27:10.490Z,2.07
2019-03-15T09:29:39.300Z,1.80
2019-03-15T09:32:09.315Z,1.80
2019-03-15T09:34:39.448Z,1.70
2019-03-15T09:37:08.008Z,1.60
2019-03-15T09:39:36.726Z,1.50
2019-03-15T09:42:05.605Z,2.30
2019-03-15T09:44:37.315Z,2.40
2019-03-15T09:47:04.867Z,2.80
2019-03-15T09:49:33.508Z,2.37
2019-03-15T09:52:01.979Z,2.33
2019-03-15T09:54:30.705Z,2.03
2019-03-15T09:56:59.272Z,1.80
2019-03-15T09:59:28.127Z,2.00
2019-03-15T10:01:56.950Z,2.13
2019-03-15T10:04:25.812Z,2.40
2019-03-15T10:06:54.739Z,2.30
2019-03-15T10:09:23.421Z,2.20
2019-03-15T10:11:52.084Z,2.50
2019-03-15T10:14:20.771Z,4.77
2019-03-15T10:17:08.145Z,10.87
2019-03-15T10:19:40.029Z,8.63
2019-03-15T10:22:08.969Z,3.90
2019-03-15T10:24:37.632Z,2.80
2019-03-15T10:27:06.107Z,2.47
2019-03-15T10:29:35.039Z,2.50
2019-03-15T10:32:03.695Z,2.27
2019-03-15T10:34:35.536Z,4.17
2019-03-15T10:37:06.036Z,3.30
2019-03-15T10:39:35.060Z,3.90
2019-03-15T10:42:03.788Z,12.83
2019-03-15T10:44:32.434Z,9.97
2019-03-15T10:47:00.918Z,3.80
2019-03-15T10:49:30.969Z,2.53
2019-03-15T10:52:00.743Z,2.50
2019-03-15T10:54:29.376Z,2.37
2019-03-15T10:56:58.147Z,2.33
2019-03-15T10:59:26.791Z,2.60
2019-03-15T11:01:55.730Z,2.70
2019-03-15T11:04:24.587Z,3.20
2019-03-15T11:06:53.468Z,3.00
2019-03-15T11:09:21.990Z,3.00
2019-03-15T11:11:50.546Z,2.60
2019-03-15T11:14:19.383Z,3.00
2019-03-15T11:16:48.040Z,2.60
2019-03-15T11:19:16.686Z,2.47
2019-03-15T11:21:45.371Z,2.27
2019-03-15T11:24:13.809Z,2.67
2019-03-15T11:26:42.536Z,2.67
2019-03-15T11:29:10.928Z,2.67
2019-03-15T11:31:39.335Z,2.73
2019-03-15T11:34:07.883Z,2.50
2019-03-15T11:36:36.677Z,2.57
2019-03-15T11:39:07.175Z,2.57
2019-03-15T11:41:35.571Z,2.50
2019-03-15T11:44:04.360Z,2.90
2019-03-15T11:46:33.105Z,2.80
2019-03-15T11:49:01.945Z,2.73
2019-03-15T11:51:30.609Z,2.93
2019-03-15T11:53:59.330Z,3.00
2019-03-15T11:56:27.982Z,3.03
2019-03-15T11:58:56.680Z,2.97
2019-03-15T12:01:25.396Z,2.73
2019-03-15T12:03:53.851Z,3.00
2019-03-15T12:06:22.730Z,2.97
2019-03-15T12:08:51.452Z,3.17
2019-03-15T12:11:19.963Z,3.47
2019-03-15T12:13:48.278Z,3.20
2019-03-15T12:16:17.087Z,3.57
2019-03-15T12:18:45.455Z,3.33
2019-03-15T12:21:14.023Z,2.93
2019-03-15T12:23:42.740Z,2.77
2019-03-15T12:26:11.394Z,3.03
2019-03-15T12:28:39.880Z,3.30
2019-03-15T12:31:08.607Z,3.60
2019-03-15T12:33:36.959Z,3.90
2019-03-15T12:36:05.521Z,3.57
2019-03-15T12:38:34.620Z,3.60
2019-03-15T12:41:03.318Z,3.53
2019-03-15T12:43:32.003Z,3.50
2019-03-15T12:46:00.744Z,4.03
2019-03-15T12:48:29.344Z,3.70
2019-03-15T12:50:57.859Z,3.73
2019-03-15T12:53:27.241Z,3.53
2019-03-15T12:55:56.518Z,3.53
2019-03-15T12:58:25.043Z,3.07
2019-03-15T13:00:53.871Z,3.30
2019-03-15T13:03:28.720Z,3.00
2019-03-15T13:05:57.587Z,3.03
2019-03-15T13:08:26.246Z,3.60
2019-03-15T13:10:54.930Z,3.10
2019-03-15T13:13:23.861Z,3.03
2019-03-15T13:15:52.318Z,3.30
2019-03-15T13:18:20.972Z,3.00
2019-03-15T13:20:49.486Z,3.10
2019-03-15T13:23:18.395Z,2.50
2019-03-15T13:25:47.234Z,3.20
2019-03-15T13:28:15.754Z,3.03
2019-03-15T13:30:44.382Z,3.30
2019-03-15T13:33:20.189Z,3.13
2019-03-15T13:35:44.530Z,3.53
2019-03-15T13:38:13.315Z,2.90
2019-03-15T13:40:41.999Z,3.20
2019-03-15T13:43:11.207Z,3.30
2019-03-15T13:45:39.595Z,3.43
2019-03-15T13:48:08.672Z,2.80
2019-03-15T13:50:37.123Z,3.17
2019-03-15T13:53:06.106Z,2.77
2019-03-15T13:55:35.268Z,3.40
2019-03-15T13:58:03.771Z,3.30
2019-03-15T14:00:32.742Z,3.50
2019-03-15T14:03:01.217Z,3.70
2019-03-15T14:05:33.751Z,3.63
2019-03-15T14:08:11.566Z,5.03
2019-03-15T14:10:48.165Z,4.20
2019-03-15T14:13:04.952Z,3.80
2019-03-15T14:15:33.958Z,5.00
2019-03-15T14:18:02.775Z,6.07
2019-03-15T14:20:33.072Z,5.07
2019-03-15T14:23:03.161Z,3.97
2019-03-15T14:25:32.728Z,5.17
2019-03-15T14:28:02.401Z,5.27
2019-03-15T14:30:32.418Z,5.00
2019-03-15T14:33:01.247Z,4.40
2019-03-15T14:35:29.706Z,6.53
2019-03-15T14:37:58.363Z,5.17
2019-03-15T14:40:27.138Z,5.00
2019-03-15T14:42:55.660Z,4.90
2019-03-15T14:45:24.322Z,4.73
2019-03-15T14:47:52.889Z,4.63
2019-03-15T14:50:21.617Z,4.50
2019-03-15T14:52:50.260Z,4.40
2019-03-15T14:55:19.974Z,4.03
2019-03-15T14:57:53.581Z,3.40
2019-03-15T15:00:19.827Z,4.93
2019-03-15T15:02:48.298Z,6.17
2019-03-15T15:05:16.984Z,4.53
2019-03-15T15:07:46.671Z,4.40
2019-03-15T15:10:15.438Z,4.23
2019-03-15T15:12:44.276Z,4.70
2019-03-15T15:15:12.734Z,4.43
2019-03-15T15:17:41.105Z,3.90
2019-03-15T15:20:10.127Z,4.50
2019-03-15T15:22:38.825Z,4.53
2019-03-15T15:25:08.718Z,3.77
2019-03-15T15:27:37.214Z,4.03
2019-03-15T15:30:06.681Z,4.13
2019-03-15T15:32:34.942Z,3.93
2019-03-15T15:35:03.709Z,3.43
2019-03-15T15:37:32.329Z,3.80
2019-03-15T15:40:00.899Z,4.77
2019-03-15T15:42:29.944Z,4.30
2019-03-15T15:44:58.586Z,4.87
2019-03-15T15:47:27.282Z,4.23
2019-03-15T15:49:56.017Z,3.90
2019-03-15T15:52:24.659Z,3.77
2019-03-15T15:54:53.112Z,3.77
2019-03-15T15:57:21.845Z,4.03
2019-03-15T15:59:50.503Z,4.03
2019-03-15T16:02:19.187Z,4.30
2019-03-15T16:04:48.929Z,3.70
2019-03-15T16:07:17.577Z,4.00
2019-03-15T16:09:46.277Z,3.97
2019-03-15T16:12:14.808Z,3.40
2019-03-15T16:14:43.636Z,4.30
2019-03-15T16:17:12.124Z,3.87
2019-03-15T16:19:40.840Z,4.20
2019-03-15T16:22:09.491Z,4.13
2019-03-15T16:24:38.392Z,3.80
2019-03-15T16:27:06.813Z,3.53
2019-03-15T16:29:35.147Z,4.30
2019-03-15T16:32:03.826Z,4.00
2019-03-15T16:34:32.753Z,3.47
2019-03-15T16:37:01.100Z,3.63
2019-03-15T16:39:29.686Z,4.03
2019-03-15T16:41:58.859Z,4.23
2019-03-15T16:44:27.255Z,4.03
2019-03-15T16:46:56.956Z,4.13
2019-03-15T16:49:25.892Z,4.00
2019-03-15T16:51:54.533Z,4.50
2019-03-15T16:54:23.212Z,4.10
2019-03-15T16:56:51.959Z,4.07
2019-03-15T16:59:20.602Z,4.00
2019-03-15T17:01:49.278Z,4.33
2019-03-15T17:04:17.778Z,5.13
2019-03-15T17:06:46.446Z,4.30
2019-03-15T17:09:15.557Z,4.57
2019-03-15T17:11:44.274Z,4.23
2019-03-15T17:14:25.056Z,3.80
2019-03-15T17:16:43.453Z,4.33
2019-03-15T17:19:11.938Z,5.03
2019-03-15T17:21:56.686Z,5.97
2019-03-15T17:24:25.525Z,4.67
2019-03-15T17:26:54.970Z,5.57
2019-03-15T17:29:23.654Z,4.97
2019-03-15T17:31:53.220Z,4.73
2019-03-15T17:34:21.746Z,4.73
2019-03-15T17:36:50.543Z,4.07
2019-03-15T17:39:19.118Z,4.70
2019-03-15T17:41:48.201Z,4.73
2019-03-15T17:44:16.597Z,4.07
2019-03-15T17:46:45.152Z,4.80
2019-03-15T17:49:13.802Z,4.97
2019-03-15T17:51:42.246Z,5.30
2019-03-15T17:54:10.966Z,5.03
2019-03-15T17:56:39.407Z,5.00
2019-03-15T17:59:12.593Z,5.50
2019-03-15T18:01:38.366Z,4.50
2019-03-15T18:04:07.210Z,6.57
2019-03-15T18:06:35.723Z,4.40
2019-03-15T18:09:05.259Z,4.60
2019-03-15T18:11:33.781Z,5.73
2019-03-15T18:14:02.249Z,5.50
2019-03-15T18:16:30.809Z,5.03
2019-03-15T18:19:00.050Z,7.40
2019-03-15T18:21:28.711Z,5.70
2019-03-15T18:23:57.653Z,5.90
2019-03-15T18:26:26.750Z,13.17
2019-03-15T18:28:55.395Z,14.43
2019-03-15T18:31:24.625Z,7.07
2019-03-15T18:33:54.196Z,7.50
2019-03-15T18:36:23.387Z,5.00
2019-03-15T18:38:52.244Z,4.27
2019-03-15T18:41:21.350Z,5.20
2019-03-15T18:43:50.262Z,4.97
2019-03-15T18:46:19.987Z,6.17
2019-03-15T18:48:49.185Z,6.83
2019-03-15T18:51:17.587Z,4.83
2019-03-15T18:53:47.214Z,4.13
2019-03-15T18:56:15.847Z,5.00
2019-03-15T18:58:45.559Z,3.80
2019-03-15T19:01:14.892Z,3.77
2019-03-15T19:03:43.459Z,3.70
2019-03-15T19:06:12.245Z,3.40
2019-03-15T19:08:46.696Z,3.10
2019-03-15T19:11:15.473Z,3.70
2019-03-15T19:13:44.462Z,3.40
2019-03-15T19:16:20.041Z,4.23
2019-03-15T19:18:44.700Z,3.20
2019-03-15T19:21:13.111Z,3.20
2019-03-15T19:23:43.434Z,3.10
2019-03-15T19:26:12.159Z,3.10
2019-03-15T19:28:40.879Z,2.70
2019-03-15T19:31:09.528Z,3.00
2019-03-15T19:33:38.002Z,2.83
2019-03-15T19:36:06.763Z,2.67
2019-03-15T19:38:35.587Z,9.10
2019-03-15T19:41:04.612Z,8.50
2019-03-15T19:43:33.105Z,4.80
2019-03-15T19:46:01.836Z,9.40
2019-03-15T19:48:30.556Z,3.20
2019-03-15T19:50:59.064Z,3.57
2019-03-15T19:53:27.399Z,3.50
2019-03-15T19:55:58.391Z,3.50
2019-03-15T19:58:27.143Z,3.97
2019-03-15T20:00:56.021Z,4.87
2019-03-15T20:03:24.580Z,4.13
2019-03-15T20:05:53.406Z,6.97
2019-03-15T20:08:21.989Z,4.60
2019-03-15T20:10:50.727Z,4.60
2019-03-15T20:13:19.556Z,4.67
2019-03-15T20:15:55.509Z,5.60
2019-03-15T20:18:24.613Z,5.23
2019-03-15T20:20:53.272Z,9.67
2019-03-15T20:23:22.442Z,8.80
2019-03-15T20:25:51.082Z,7.50
2019-03-15T20:28:20.034Z,3.50
2019-03-15T20:30:52.257Z,4.57
2019-03-15T20:33:19.522Z,4.53
2019-03-15T20:35:48.050Z,4.23
2019-03-15T20:38:16.729Z,4.57
2019-03-15T20:40:45.897Z,5.17
2019-03-15T20:43:14.647Z,3.40
2019-03-15T20:45:44.701Z,3.20
2019-03-15T20:48:13.550Z,12.37
2019-03-15T20:50:47.095Z,6.27
2019-03-15T20:53:13.191Z,3.50
2019-03-15T20:55:42.213Z,3.23
2019-03-15T20:58:10.426Z,3.17
2019-03-15T21:00:38.991Z,3.70
2019-03-15T21:03:07.767Z,8.50
2019-03-15T21:05:36.359Z,4.60
2019-03-15T21:08:05.635Z,6.70
2019-03-15T21:10:34.377Z,3.83
2019-03-15T21:13:03.338Z,3.80
2019-03-15T21:15:32.541Z,3.63
2019-03-15T21:18:03.640Z,3.80
2019-03-15T21:20:32.166Z,3.87
2019-03-15T21:23:01.223Z,5.20
2019-03-15T21:25:29.982Z,4.07
2019-03-15T21:27:58.750Z,3.40
2019-03-15T21:30:27.527Z,3.37
2019-03-15T21:32:56.030Z,3.50
2019-03-15T21:35:24.385Z,3.93
2019-03-15T21:37:53.156Z,3.60
2019-03-15T21:40:21.788Z,4.03
2019-03-15T21:42:50.538Z,4.70
2019-03-15T21:45:19.862Z,7.67
2019-03-15T21:47:48.565Z,4.80
2019-03-15T21:50:16.910Z,5.30
2019-03-15T21:52:45.698Z,4.73
2019-03-15T21:55:14.425Z,4.37
2019-03-15T21:57:43.074Z,5.83
2019-03-15T22:00:12.853Z,5.60
2019-03-15T22:02:41.293Z,4.13
2019-03-15T22:05:10.666Z,5.40
2019-03-15T22:07:40.477Z,5.17
2019-03-15T22:10:09.654Z,5.00
2019-03-15T22:12:38.161Z,4.23
2019-03-15T22:15:07.394Z,4.63
2019-03-15T22:17:36.459Z,5.23
2019-03-15T22:20:07.178Z,4.40
2019-03-15T22:22:35.906Z,4.20
2019-03-15T22:25:04.827Z,5.10
2019-03-15T22:27:33.641Z,4.00
2019-03-15T22:30:02.357Z,5.03
2019-03-15T22:32:31.831Z,4.13
2019-03-15T22:35:00.407Z,4.00
2019-03-15T22:37:29.038Z,3.93
2019-03-15T22:39:57.679Z,3.53
2019-03-15T22:42:26.362Z,3.00
2019-03-15T22:44:55.092Z,3.00
2019-03-15T22:47:23.727Z,2.60
2019-03-15T22:49:52.426Z,2.73
2019-03-15T22:52:23.559Z,2.63
2019-03-15T22:54:52.458Z,2.80
2019-03-15T22:57:20.942Z,2.83
2019-03-15T22:59:49.341Z,4.10
2019-03-15T23:02:17.902Z,2.77
2019-03-15T23:04:46.585Z,3.20
2019-03-15T23:07:15.297Z,2.73
2019-03-15T23:09:43.752Z,2.73
2019-03-15T23:12:12.431Z,2.60
2019-03-15T23:14:40.730Z,2.60
2019-03-15T23:17:09.393Z,3.20
2019-03-15T23:19:44.166Z,6.50
2019-03-15T23:22:12.715Z,2.80
2019-03-15T23:24:41.387Z,2.53
2019-03-15T23:27:10.110Z,2.67
2019-03-15T23:29:38.754Z,2.47
2019-03-15T23:32:07.441Z,2.27
2019-03-15T23:34:35.986Z,2.83
2019-03-15T23:37:04.614Z,2.50
2019-03-15T23:39:33.293Z,2.40
2019-03-15T23:42:01.819Z,2.60
2019-03-15T23:44:30.463Z,2.77
2019-03-15T23:46:59.189Z,2.90
2019-03-15T23:49:27.670Z,3.03
2019-03-15T23:51:56.330Z,2.73
2019-03-15T23:54:24.913Z,2.47
2019-03-15T23:56:53.745Z,2.90
2019-03-15T23:59:22.373Z,2.50
